< < Back
Terminal Aerodrome Forecast


Current Version              Previous Versions:   1  2  3  4  5  6  7  8  9  

Terminal Aerodrome Forecast

606
FTUS44 KMRX 010542
TAFTYS
TAF
KTYS 010542Z 0106/0206 05003KT P6SM BKN150
     FM011200 05005KT P6SM SCT040 BKN150
     FM020100 VRB03KT P6SM SCT150=



Latest METAR

835
SAUS80 KWBC 010700 RRF
MTRTYS
METAR KTYS 010653Z 32004KT 10SM SCT150 OVC250 20/18 A3007 RMK AO2 SLP172
T02000183


USA.gov is the U.S. government's official web portal to all federal, state and local government web resources and services.